Time;durP1;ratioP1;P1;durP2;ratioP2;P2;SDS_P1;SDS_P2;PMS_P1;PMS_P2;Temp;Humidity;BMP_temperature;BMP_pressure;BME280_temperature;BME280_humidity;BME280_pressure;Samples;Min_cycle;Max_cycle;Signal;HPM_P1;HPM_P2
2024/02/10 00:01:44;;;;;;;16.90;6.88;;;;;;;;;;4963245;29;20314;-90
2024/02/10 00:04:50;;;;;;;16.60;7.22;;;;;;;;;;4964312;29;20225;-88
2024/02/10 00:07:56;;;;;;;25.98;8.75;;;;;;;;;;4962645;29;20662;-89
2024/02/10 00:11:02;;;;;;;27.08;9.20;;;;;;;;;;4963655;29;20210;-90
2024/02/10 00:14:10;;;;;;;19.55;8.15;;;;;;;;;;4961470;28;20222;-88
2024/02/10 00:17:16;;;;;;;23.73;9.48;;;;;;;;;;4961714;29;20198;-88
2024/02/10 00:20:23;;;;;;;16.75;8.27;;;;;;;;;;4962058;29;20186;-88
2024/02/10 00:23:30;;;;;;;25.27;9.10;;;;;;;;;;4962248;29;20246;-88
2024/02/10 00:26:37;;;;;;;19.67;8.30;;;;;;;;;;4962639;29;20666;-89
2024/02/10 00:29:45;;;;;;;23.20;8.88;;;;;;;;;;4960900;29;20206;-90
2024/02/10 00:32:51;;;;;;;22.35;8.45;;;;;;;;;;4962693;29;20195;-89
2024/02/10 00:35:56;;;;;;;23.35;8.63;;;;;;;;;;4961230;29;20194;-89
2024/02/10 00:39:01;;;;;;;19.65;7.95;;;;;;;;;;4961999;29;20322;-90
2024/02/10 00:42:06;;;;;;;20.58;9.35;;;;;;;;;;4964234;29;20310;-89
2024/02/10 00:45:13;;;;;;;20.17;8.38;;;;;;;;;;4961628;29;20326;-90
2024/02/10 00:48:18;;;;;;;23.55;7.90;;;;;;;;;;4961123;29;20214;-89
2024/02/10 00:51:23;;;;;;;18.75;6.65;;;;;;;;;;4962097;29;20213;-89
2024/02/10 00:54:29;;;;;;;18.05;6.97;;;;;;;;;;4962015;29;20214;-90
2024/02/10 00:57:34;;;;;;;17.38;7.00;;;;;;;;;;4960938;29;20206;-89
2024/02/10 01:00:42;;;;;;;18.98;7.28;;;;;;;;;;4959659;29;20194;-90
2024/02/10 01:03:47;;;;;;;13.60;7.13;;;;;;;;;;4960471;29;20577;-89
2024/02/10 01:06:53;;;;;;;15.35;7.30;;;;;;;;;;4961648;29;20342;-89
2024/02/10 01:09:58;;;;;;;19.17;7.38;;;;;;;;;;4960894;29;20198;-89
2024/02/10 01:13:03;;;;;;;84.75;31.38;;;;;;;;;;4961896;29;20778;-89
2024/02/10 01:16:10;;;;;;;17.70;6.90;;;;;;;;;;4961403;29;20286;-89
2024/02/10 01:19:17;;;;;;;18.60;7.32;;;;;;;;;;4973174;28;20245;-89
2024/02/10 01:22:22;;;;;;;17.48;7.05;;;;;;;;;;4981418;28;20202;-88
2024/02/10 01:25:30;;;;;;;20.27;7.70;;;;;;;;;;4980394;28;20194;-89
2024/02/10 01:28:37;;;;;;;17.52;7.35;;;;;;;;;;4979435;28;20226;-89
2024/02/10 01:31:43;;;;;;;18.63;7.00;;;;;;;;;;4980314;28;20213;-88
2024/02/10 01:34:49;;;;;;;17.27;7.45;;;;;;;;;;4979506;28;20329;-90
2024/02/10 01:37:55;;;;;;;15.98;6.70;;;;;;;;;;4979756;28;20250;-87
2024/02/10 01:41:01;;;;;;;29.77;10.32;;;;;;;;;;4981322;28;20194;-88
2024/02/10 01:44:06;;;;;;;20.10;7.50;;;;;;;;;;4980278;28;20225;-89
2024/02/10 01:47:13;;;;;;;24.73;8.23;;;;;;;;;;4979753;28;20194;-90
2024/02/10 01:50:17;;;;;;;20.25;7.07;;;;;;;;;;4979550;28;20194;-91
2024/02/10 01:53:24;;;;;;;16.80;6.63;;;;;;;;;;4978420;28;20357;-89
2024/02/10 01:56:29;;;;;;;13.00;6.65;;;;;;;;;;4980126;28;20208;-90
2024/02/10 01:59:36;;;;;;;19.98;6.97;;;;;;;;;;4979426;28;20194;-90
2024/02/10 02:02:43;;;;;;;18.65;7.18;;;;;;;;;;4983065;28;20206;-89
2024/02/10 02:05:49;;;;;;;16.63;6.47;;;;;;;;;;4983733;28;20326;-89
2024/02/10 02:08:54;;;;;;;38.30;16.83;;;;;;;;;;4983293;28;20257;-89
2024/02/10 02:12:00;;;;;;;16.90;8.38;;;;;;;;;;4984325;28;20194;-89
2024/02/10 02:15:05;;;;;;;25.48;8.27;;;;;;;;;;4987200;28;20213;-89
2024/02/10 02:18:14;;;;;;;15.73;6.57;;;;;;;;;;4989965;28;20201;-90
2024/02/10 02:21:19;;;;;;;14.07;6.50;;;;;;;;;;4988365;28;20190;-89
2024/02/10 02:24:28;;;;;;;14.15;6.60;;;;;;;;;;4985890;28;20190;-89
2024/02/10 02:27:33;;;;;;;17.98;7.47;;;;;;;;;;4985134;28;20233;-90
2024/02/10 02:30:38;;;;;;;19.15;6.93;;;;;;;;;;4985433;28;20193;-89
2024/02/10 02:33:43;;;;;;;16.83;6.70;;;;;;;;;;4986008;28;20194;-88
2024/02/10 02:36:52;;;;;;;15.65;6.95;;;;;;;;;;4987037;28;20688;-90
2024/02/10 02:40:03;;;;;;;15.70;7.00;;;;;;;;;;4978134;28;20740;-89
2024/02/10 02:43:08;;;;;;;14.45;6.35;;;;;;;;;;4965902;29;20194;-89
2024/02/10 02:46:14;;;;;;;16.08;6.47;;;;;;;;;;4966031;29;20206;-90
2024/02/10 02:49:19;;;;;;;14.05;6.55;;;;;;;;;;4965886;29;20681;-90
2024/02/10 02:52:27;;;;;;;19.02;7.18;;;;;;;;;;4966690;28;20218;-89
2024/02/10 02:55:33;;;;;;;14.00;6.88;;;;;;;;;;4966554;29;20315;-89
2024/02/10 02:58:39;;;;;;;16.23;6.50;;;;;;;;;;4964948;29;20191;-91
2024/02/10 03:01:44;;;;;;;11.73;6.25;;;;;;;;;;4965497;29;20182;-91
2024/02/10 03:04:49;;;;;;;13.15;6.45;;;;;;;;;;4976443;28;20267;-88
2024/02/10 03:07:53;;;;;;;15.50;6.43;;;;;;;;;;4966132;28;20561;-88
2024/02/10 03:11:00;;;;;;;15.55;6.43;;;;;;;;;;4967599;28;20202;-90
2024/02/10 03:14:07;;;;;;;16.15;6.10;;;;;;;;;;4964231;28;20194;-89
2024/02/10 03:17:13;;;;;;;15.57;6.40;;;;;;;;;;4977704;28;20199;-88
2024/02/10 03:20:21;;;;;;;18.00;6.70;;;;;;;;;;4965518;29;20199;-90
2024/02/10 03:23:27;;;;;;;15.68;6.10;;;;;;;;;;4966355;28;20218;-91
2024/02/10 03:26:35;;;;;;;25.70;6.10;;;;;;;;;;4966077;28;20227;-90
2024/02/10 03:29:40;;;;;;;16.42;6.55;;;;;;;;;;4983835;28;20272;-90
2024/02/10 03:32:46;;;;;;;19.20;6.18;;;;;;;;;;4972922;28;20202;-89
2024/02/10 03:35:54;;;;;;;18.08;6.03;;;;;;;;;;4964510;29;20199;-90
2024/02/10 03:39:03;;;;;;;15.07;6.53;;;;;;;;;;4964540;29;20204;-90
2024/02/10 03:42:10;;;;;;;14.60;6.38;;;;;;;;;;4972314;28;20280;-89
2024/02/10 03:45:15;;;;;;;18.15;7.03;;;;;;;;;;4983390;28;20341;-90
2024/02/10 03:48:24;;;;;;;16.80;6.50;;;;;;;;;;4975217;28;20230;-90
2024/02/10 03:51:31;;;;;;;20.67;7.25;;;;;;;;;;4975344;28;20200;-88
2024/02/10 03:54:36;;;;;;;18.05;6.63;;;;;;;;;;4964149;29;20706;-90
2024/02/10 03:57:42;;;;;;;20.80;7.20;;;;;;;;;;4962873;29;20267;-87
2024/02/10 04:00:47;;;;;;;20.55;7.10;;;;;;;;;;4961952;29;20295;-90
2024/02/10 04:03:53;;;;;;;22.30;7.85;;;;;;;;;;4963273;29;20197;-88
2024/02/10 04:06:58;;;;;;;27.33;7.75;;;;;;;;;;4963559;29;20214;-88
2024/02/10 04:10:03;;;;;;;19.33;7.25;;;;;;;;;;4963702;29;20222;-90
2024/02/10 04:13:09;;;;;;;16.33;6.80;;;;;;;;;;4962936;29;20769;-89
2024/02/10 04:16:15;;;;;;;15.63;5.63;;;;;;;;;;4963996;29;20258;-90
2024/02/10 04:19:20;;;;;;;24.25;6.57;;;;;;;;;;4962118;29;20190;-89
2024/02/10 04:22:26;;;;;;;18.38;6.47;;;;;;;;;;4962908;29;20267;-90
2024/02/10 04:25:33;;;;;;;17.10;6.28;;;;;;;;;;4963980;28;20211;-90
2024/02/10 04:28:39;;;;;;;50.88;7.55;;;;;;;;;;4963900;29;20277;-91
2024/02/10 04:31:44;;;;;;;79.18;7.15;;;;;;;;;;4964349;29;20237;-90
2024/02/10 04:34:49;;;;;;;162.98;9.77;;;;;;;;;;4962943;29;20190;-87
2024/02/10 04:37:55;;;;;;;54.13;8.48;;;;;;;;;;4964214;28;20191;-89
2024/02/10 04:41:04;;;;;;;60.70;8.35;;;;;;;;;;4962952;28;20201;-89
2024/02/10 04:44:10;;;;;;;91.20;8.43;;;;;;;;;;4967721;28;20216;-89
2024/02/10 04:47:15;;;;;;;91.78;7.70;;;;;;;;;;4982766;28;20189;-90
2024/02/10 04:50:21;;;;;;;85.10;8.27;;;;;;;;;;4982473;28;20214;-88
2024/02/10 04:53:26;;;;;;;20.25;6.75;;;;;;;;;;4983051;28;20190;-90
2024/02/10 04:56:33;;;;;;;21.23;6.43;;;;;;;;;;4982039;28;20676;-88
2024/02/10 04:59:40;;;;;;;31.10;7.03;;;;;;;;;;4982272;28;20233;-89
2024/02/10 05:02:45;;;;;;;31.88;7.43;;;;;;;;;;4981949;28;20245;-90
2024/02/10 05:05:50;;;;;;;14.48;6.40;;;;;;;;;;4968416;28;20603;-91
2024/02/10 05:08:55;;;;;;;13.40;6.53;;;;;;;;;;4980434;28;20242;-89
2024/02/10 05:12:03;;;;;;;24.80;6.47;;;;;;;;;;4981684;28;20193;-91
2024/02/10 05:15:10;;;;;;;37.78;7.20;;;;;;;;;;4964289;28;20226;-89
2024/02/10 05:18:15;;;;;;;19.08;6.38;;;;;;;;;;4962197;29;20218;-91
2024/02/10 05:21:22;;;;;;;13.73;6.07;;;;;;;;;;4963638;28;20193;-90
2024/02/10 05:24:30;;;;;;;39.40;7.25;;;;;;;;;;4963765;28;20206;-89
2024/02/10 05:27:35;;;;;;;31.05;7.15;;;;;;;;;;4966938;29;20215;-89
2024/02/10 05:30:42;;;;;;;44.40;7.40;;;;;;;;;;4965289;29;20908;-89
2024/02/10 05:33:48;;;;;;;34.25;7.63;;;;;;;;;;4963171;28;20210;-89
2024/02/10 05:36:56;;;;;;;56.95;7.88;;;;;;;;;;4967105;28;20198;-91
2024/02/10 05:40:02;;;;;;;74.32;8.82;;;;;;;;;;4985907;28;20186;-89
2024/02/10 05:43:08;;;;;;;109.82;9.55;;;;;;;;;;4986936;28;20586;-90
2024/02/10 05:46:15;;;;;;;170.60;10.63;;;;;;;;;;4986969;28;20214;-91
2024/02/10 05:49:21;;;;;;;108.03;8.40;;;;;;;;;;4986526;28;20230;-89
2024/02/10 05:52:26;;;;;;;139.07;10.43;;;;;;;;;;4986394;28;20193;-89
2024/02/10 05:55:31;;;;;;;116.78;9.88;;;;;;;;;;4984751;28;20178;-89
2024/02/10 05:58:41;;;;;;;141.90;10.50;;;;;;;;;;4986085;28;20225;-91
2024/02/10 06:01:48;;;;;;;150.75;10.23;;;;;;;;;;4986591;28;20245;-89
2024/02/10 06:04:52;;;;;;;107.82;9.60;;;;;;;;;;4984316;28;20193;-90
2024/02/10 06:08:00;;;;;;;67.45;7.65;;;;;;;;;;4985285;28;20206;-89
2024/02/10 06:11:05;;;;;;;103.68;9.90;;;;;;;;;;4985515;28;20213;-91
2024/02/10 06:14:11;;;;;;;105.07;8.57;;;;;;;;;;4988896;28;20193;-88
2024/02/10 06:17:23;;;;;;;130.13;9.80;;;;;;;;;;4990205;28;20190;-89
2024/02/10 06:20:28;;;;;;;139.82;9.45;;;;;;;;;;4989311;28;20205;-89
2024/02/10 06:23:34;;;;;;;148.67;9.50;;;;;;;;;;4991224;28;20278;-91
2024/02/10 06:26:39;;;;;;;64.68;7.20;;;;;;;;;;4968713;28;20230;-88
2024/02/10 06:29:45;;;;;;;67.18;7.05;;;;;;;;;;4967013;28;20711;-88
2024/02/10 06:32:56;;;;;;;61.60;7.70;;;;;;;;;;4968638;28;20183;-90
2024/02/10 06:36:02;;;;;;;52.25;6.95;;;;;;;;;;4968288;28;20291;-90
2024/02/10 06:39:09;;;;;;;60.80;7.05;;;;;;;;;;4967132;28;20203;-89
2024/02/10 06:42:14;;;;;;;45.30;6.85;;;;;;;;;;4968283;28;20185;-89
2024/02/10 06:45:21;;;;;;;75.95;7.80;;;;;;;;;;4968236;28;20174;-89
2024/02/10 06:48:28;;;;;;;47.55;6.85;;;;;;;;;;4969225;28;20210;-89
2024/02/10 06:51:33;;;;;;;37.00;6.45;;;;;;;;;;4988001;28;20194;-89
2024/02/10 06:54:38;;;;;;;20.25;5.90;;;;;;;;;;4986117;28;20345;-88
2024/02/10 06:57:44;;;;;;;21.85;6.30;;;;;;;;;;4987081;28;20559;-90
2024/02/10 07:00:49;;;;;;;17.77;6.53;;;;;;;;;;4989344;28;20190;-88
2024/02/10 07:03:57;;;;;;;17.13;6.47;;;;;;;;;;4988725;28;20189;-89
2024/02/10 07:07:03;;;;;;;42.50;7.90;;;;;;;;;;4989233;28;20321;-89
2024/02/10 07:10:13;;;;;;;58.38;8.13;;;;;;;;;;4987625;28;20700;-89
2024/02/10 07:13:18;;;;;;;42.35;7.93;;;;;;;;;;4984651;28;20325;-90
2024/02/10 07:16:23;;;;;;;36.72;7.38;;;;;;;;;;4988340;28;20194;-89
2024/02/10 07:19:35;;;;;;;41.25;7.13;;;;;;;;;;4987463;28;20194;-93
2024/02/10 07:22:40;;;;;;;55.22;6.60;;;;;;;;;;4985612;28;20248;-89
2024/02/10 07:25:46;;;;;;;57.57;7.27;;;;;;;;;;4987719;28;20255;-89
2024/02/10 07:28:53;;;;;;;42.33;6.10;;;;;;;;;;4986274;28;20202;-89
2024/02/10 07:31:58;;;;;;;56.33;7.80;;;;;;;;;;4988655;28;20185;-89
2024/02/10 07:35:06;;;;;;;29.25;6.97;;;;;;;;;;4989251;28;20208;-89
2024/02/10 07:38:12;;;;;;;44.47;9.38;;;;;;;;;;4989017;28;20181;-88
2024/02/10 07:41:17;;;;;;;72.65;8.90;;;;;;;;;;4990335;28;20201;-91
2024/02/10 07:44:24;;;;;;;28.25;8.73;;;;;;;;;;4989344;28;20279;-90
2024/02/10 07:47:29;;;;;;;25.90;6.93;;;;;;;;;;4988569;28;20194;-90
2024/02/10 07:50:37;;;;;;;14.18;6.90;;;;;;;;;;4987990;28;20222;-89
2024/02/10 07:53:45;;;;;;;13.98;7.22;;;;;;;;;;4990107;28;20716;-91
2024/02/10 07:56:50;;;;;;;20.80;7.35;;;;;;;;;;4991103;28;20202;-90
2024/02/10 07:59:57;;;;;;;13.50;5.80;;;;;;;;;;4988896;28;20566;-89
2024/02/10 08:03:04;;;;;;;13.55;6.30;;;;;;;;;;4990033;28;20198;-90
2024/02/10 08:06:18;;;;;;;21.63;5.72;;;;;;;;;;4991348;28;20270;-90
2024/02/10 08:09:24;;;;;;;14.27;5.85;;;;;;;;;;4986787;28;20241;-91
2024/02/10 08:12:29;;;;;;;11.35;5.45;;;;;;;;;;4987015;28;20274;-89
2024/02/10 08:15:35;;;;;;;12.80;5.22;;;;;;;;;;4986004;28;20212;-89
2024/02/10 08:18:41;;;;;;;15.23;5.45;;;;;;;;;;4988085;28;20226;-87
2024/02/10 08:21:48;;;;;;;10.07;5.50;;;;;;;;;;4987010;28;20194;-90
2024/02/10 08:24:55;;;;;;;7.95;4.60;;;;;;;;;;4988278;28;20261;-90
2024/02/10 08:28:01;;;;;;;10.13;5.70;;;;;;;;;;4986099;28;20205;-90
2024/02/10 08:31:06;;;;;;;13.73;6.00;;;;;;;;;;4967356;28;20239;-90
2024/02/10 08:34:13;;;;;;;11.90;6.00;;;;;;;;;;4967617;28;20248;-88
2024/02/10 08:37:20;;;;;;;12.73;6.13;;;;;;;;;;4968929;28;20238;-90
2024/02/10 08:40:26;;;;;;;11.90;5.95;;;;;;;;;;4967686;28;20194;-90
2024/02/10 08:43:31;;;;;;;10.48;5.28;;;;;;;;;;4969232;28;20257;-88
2024/02/10 08:46:42;;;;;;;13.30;5.20;;;;;;;;;;4970076;28;20247;-90
2024/02/10 08:49:49;;;;;;;11.57;5.80;;;;;;;;;;4968511;28;20186;-91
2024/02/10 08:52:57;;;;;;;9.75;5.05;;;;;;;;;;4967845;28;20235;-88
2024/02/10 08:56:03;;;;;;;12.52;5.63;;;;;;;;;;4967254;28;20194;-91
2024/02/10 08:59:12;;;;;;;11.50;5.35;;;;;;;;;;4969454;28;20199;-88
2024/02/10 09:02:18;;;;;;;7.55;4.30;;;;;;;;;;4967242;29;20276;-88
2024/02/10 09:05:26;;;;;;;9.77;4.82;;;;;;;;;;4969180;28;20189;-90
2024/02/10 09:08:39;;;;;;;12.30;5.55;;;;;;;;;;4967651;29;20561;-90
2024/02/10 09:11:45;;;;;;;12.05;4.78;;;;;;;;;;4967956;28;20222;-91
2024/02/10 09:14:52;;;;;;;7.13;4.13;;;;;;;;;;4969875;28;20218;-89
2024/02/10 09:17:58;;;;;;;9.20;4.45;;;;;;;;;;4967189;28;20188;-91
2024/02/10 09:21:03;;;;;;;10.35;4.78;;;;;;;;;;4967692;28;20189;-91
2024/02/10 09:24:27;;;;;;;7.18;4.47;;;;;;;;;;4970126;28;20219;-91
2024/02/10 09:27:34;;;;;;;9.88;4.70;;;;;;;;;;4966347;28;20187;-90
2024/02/10 09:30:40;;;;;;;14.25;5.47;;;;;;;;;;4967472;29;20283;-89
2024/02/10 09:33:46;;;;;;;10.25;5.70;;;;;;;;;;4965953;28;20186;-91
2024/02/10 09:36:53;;;;;;;10.07;5.13;;;;;;;;;;4965976;29;20214;-92
2024/02/10 09:39:58;;;;;;;8.75;4.93;;;;;;;;;;4969177;28;20206;-90
2024/02/10 09:43:08;;;;;;;8.90;4.80;;;;;;;;;;4966405;29;20268;-91
2024/02/10 09:46:13;;;;;;;15.80;5.53;;;;;;;;;;4966924;28;20198;-89
2024/02/10 09:49:20;;;;;;;9.98;4.63;;;;;;;;;;4967889;28;20195;-88
2024/02/10 09:52:25;;;;;;;14.80;4.30;;;;;;;;;;4968367;28;20199;-89
2024/02/10 09:55:30;;;;;;;8.75;4.15;;;;;;;;;;4967610;28;20653;-90
2024/02/10 09:58:39;;;;;;;8.80;4.22;;;;;;;;;;4968048;28;20218;-88
2024/02/10 10:01:45;;;;;;;8.45;4.30;;;;;;;;;;4970900;28;20286;-89
2024/02/10 10:04:51;;;;;;;10.15;4.47;;;;;;;;;;4970341;28;20206;-90
2024/02/10 10:07:56;;;;;;;7.35;3.72;;;;;;;;;;4969878;28;20206;-90
2024/02/10 10:11:02;;;;;;;8.02;4.10;;;;;;;;;;4966447;28;20223;-88
2024/02/10 10:14:10;;;;;;;13.50;4.95;;;;;;;;;;4967784;28;20190;-90
2024/02/10 10:17:15;;;;;;;9.98;4.05;;;;;;;;;;4965326;28;20195;-89
2024/02/10 10:20:21;;;;;;;10.32;4.40;;;;;;;;;;4982108;28;20205;-88
2024/02/10 10:23:26;;;;;;;13.90;6.75;;;;;;;;;;4989125;28;20664;-90
2024/02/10 10:26:32;;;;;;;21.55;8.63;;;;;;;;;;4988245;28;20190;-91
2024/02/10 10:29:39;;;;;;;22.85;9.55;;;;;;;;;;4971417;28;20194;-92
2024/02/10 10:32:50;;;;;;;26.65;10.48;;;;;;;;;;4971907;28;20194;-91
2024/02/10 10:35:56;;;;;;;23.85;8.65;;;;;;;;;;4969481;28;20194;-91
2024/02/10 10:39:03;;;;;;;13.88;5.38;;;;;;;;;;4971557;28;20197;-94
2024/02/10 10:42:10;;;;;;;19.55;8.20;;;;;;;;;;4970916;28;20225;-92
2024/02/10 10:45:17;;;;;;;17.60;8.27;;;;;;;;;;4970599;28;20193;-92
2024/02/10 10:48:24;;;;;;;21.77;10.02;;;;;;;;;;4981850;28;20257;-91
2024/02/10 10:51:32;;;;;;;24.58;10.00;;;;;;;;;;4988636;28;20222;-90
2024/02/10 10:54:38;;;;;;;16.77;7.88;;;;;;;;;;4987938;28;20190;-91
2024/02/10 10:57:47;;;;;;;18.42;8.57;;;;;;;;;;4990364;28;20326;-91
2024/02/10 11:00:59;;;;;;;18.63;7.53;;;;;;;;;;4992026;28;20218;-92
2024/02/10 11:04:07;;;;;;;13.80;7.28;;;;;;;;;;4991078;28;20182;-91
2024/02/10 11:07:13;;;;;;;14.88;6.78;;;;;;;;;;4988219;28;20189;-92
2024/02/10 11:10:37;;;;;;;16.17;7.22;;;;;;;;;;4991334;28;20202;-93
2024/02/10 11:13:42;;;;;;;15.80;7.07;;;;;;;;;;4989466;28;20318;-91
2024/02/10 11:16:52;;;;;;;13.57;6.45;;;;;;;;;;4991676;28;20318;-89
2024/02/10 11:20:04;;;;;;;16.90;7.55;;;;;;;;;;4992610;28;20186;-91
2024/02/10 11:23:14;;;;;;;22.05;8.30;;;;;;;;;;4992333;28;20182;-91
2024/02/10 11:26:20;;;;;;;28.42;12.80;;;;;;;;;;4984052;28;20257;-90
2024/02/10 11:29:25;;;;;;;29.10;13.50;;;;;;;;;;4990821;28;20178;-91
2024/02/10 11:32:33;;;;;;;38.03;17.45;;;;;;;;;;4991115;28;20699;-92
2024/02/10 11:39:07;;;;;;;27.83;13.65;;;;;;;;;;4994049;28;20210;-92
2024/02/10 11:42:16;;;;;;;36.95;15.57;;;;;;;;;;4990404;28;20242;-91
2024/02/10 11:45:22;;;;;;;37.88;17.08;;;;;;;;;;4991740;28;20198;-91
2024/02/10 11:48:31;;;;;;;45.70;21.10;;;;;;;;;;4989046;28;20218;-93
2024/02/10 11:51:36;;;;;;;42.80;18.35;;;;;;;;;;4991925;28;20221;-91
2024/02/10 11:54:42;;;;;;;27.27;12.80;;;;;;;;;;4989920;28;20844;-91
2024/02/10 11:57:47;;;;;;;25.15;11.45;;;;;;;;;;4988251;28;20552;-93
2024/02/10 12:00:53;;;;;;;26.02;10.57;;;;;;;;;;4992696;28;20190;-88
2024/02/10 12:04:05;;;;;;;30.60;11.88;;;;;;;;;;4991974;28;20257;-93
2024/02/10 12:07:12;;;;;;;29.92;13.38;;;;;;;;;;4991191;28;20189;-90
2024/02/10 12:10:23;;;;;;;34.83;15.13;;;;;;;;;;4990255;28;20189;-91
2024/02/10 12:13:29;;;;;;;36.38;15.80;;;;;;;;;;4992417;28;20201;-93
2024/02/10 12:16:39;;;;;;;46.13;17.48;;;;;;;;;;4992772;28;20210;-90
2024/02/10 12:19:52;;;;;;;36.08;15.15;;;;;;;;;;4991136;28;20190;-89
2024/02/10 12:22:58;;;;;;;31.75;14.93;;;;;;;;;;4990082;28;20233;-91
2024/02/10 12:26:08;;;;;;;35.05;16.02;;;;;;;;;;4991259;28;20206;-91
2024/02/10 12:29:15;;;;;;;35.42;16.83;;;;;;;;;;4990958;28;20190;-93
2024/02/10 12:32:23;;;;;;;38.55;17.98;;;;;;;;;;4989392;28;20218;-89
2024/02/10 12:35:31;;;;;;;36.70;17.23;;;;;;;;;;4986503;28;20294;-91
2024/02/10 12:38:36;;;;;;;33.65;15.38;;;;;;;;;;4987526;28;20178;-90
2024/02/10 12:41:42;;;;;;;33.33;14.35;;;;;;;;;;4985139;28;20193;-90
2024/02/10 12:44:48;;;;;;;34.03;14.48;;;;;;;;;;4985789;28;20190;-92
2024/02/10 12:47:53;;;;;;;33.33;13.70;;;;;;;;;;4985932;28;20190;-93
2024/02/10 12:50:59;;;;;;;36.58;14.88;;;;;;;;;;4987920;28;20210;-91
2024/02/10 12:54:05;;;;;;;35.38;14.57;;;;;;;;;;4988374;28;20226;-91
2024/02/10 12:57:10;;;;;;;41.75;17.20;;;;;;;;;;4986969;28;20190;-90
2024/02/10 13:00:21;;;;;;;47.45;19.38;;;;;;;;;;4989336;28;20561;-91
2024/02/10 13:03:27;;;;;;;47.60;19.60;;;;;;;;;;4987942;28;20205;-90
2024/02/10 13:06:42;;;;;;;55.83;22.50;;;;;;;;;;4990151;28;20189;-91
2024/02/10 13:09:48;;;;;;;45.85;19.50;;;;;;;;;;4988738;28;20194;-93
2024/02/10 13:12:54;;;;;;;49.70;20.13;;;;;;;;;;4987190;28;20206;-91
2024/02/10 13:16:00;;;;;;;40.35;17.70;;;;;;;;;;4988081;28;20563;-91
2024/02/10 13:19:06;;;;;;;39.67;17.25;;;;;;;;;;4987941;28;20185;-92
2024/02/10 13:22:14;;;;;;;38.10;17.25;;;;;;;;;;4987255;28;20250;-92
2024/02/10 13:25:21;;;;;;;30.70;13.07;;;;;;;;;;4989649;28;20178;-91
2024/02/10 13:28:26;;;;;;;42.15;17.52;;;;;;;;;;4987868;28;20208;-90
2024/02/10 13:31:34;;;;;;;21.67;9.52;;;;;;;;;;4989292;28;20212;-90
2024/02/10 13:34:45;;;;;;;17.00;6.65;;;;;;;;;;4988516;28;20190;-89
2024/02/10 14:01:17;;;;;;;3.30;1.60;;;;;;;;;;4993617;28;20234;-91
2024/02/10 14:04:33;;;;;;;5.32;2.00;;;;;;;;;;4994375;28;20206;-92
2024/02/10 14:08:33;;;;;;;4.05;1.85;;;;;;;;;;4994476;28;20174;-93
2024/02/10 14:11:32;;;;;;;5.80;2.03;;;;;;;;;;4993389;28;20209;-91
2024/02/10 14:14:41;;;;;;;4.82;1.80;;;;;;;;;;4992743;28;20213;-89
2024/02/10 14:17:48;;;;;;;5.05;1.30;;;;;;;;;;4994464;28;20202;-89
2024/02/10 14:21:00;;;;;;;6.07;2.40;;;;;;;;;;4997060;28;20185;-92
2024/02/10 14:24:09;;;;;;;4.03;1.60;;;;;;;;;;4996670;28;20274;-92
2024/02/10 14:27:19;;;;;;;5.80;2.28;;;;;;;;;;4996038;28;20254;-91
2024/02/10 14:30:34;;;;;;;4.13;2.00;;;;;;;;;;4994501;28;20275;-92
2024/02/10 14:33:41;;;;;;;9.35;2.28;;;;;;;;;;4995047;28;20193;-91
2024/02/10 14:36:55;;;;;;;5.50;2.08;;;;;;;;;;4994555;28;20265;-90
2024/02/10 14:40:01;;;;;;;9.15;3.00;;;;;;;;;;4993628;28;20202;-93
2024/02/10 14:43:08;;;;;;;8.82;2.78;;;;;;;;;;4991757;28;20320;-92
2024/02/10 14:46:14;;;;;;;10.73;4.60;;;;;;;;;;4981706;28;20190;-91
2024/02/10 14:49:25;;;;;;;19.08;5.22;;;;;;;;;;4991493;28;20190;-92
2024/02/10 14:52:31;;;;;;;11.80;5.18;;;;;;;;;;4991081;28;20230;-91
2024/02/10 14:55:40;;;;;;;10.30;4.75;;;;;;;;;;4989933;28;20210;-93
2024/02/10 14:58:51;;;;;;;8.55;3.40;;;;;;;;;;4991261;28;20177;-90
2024/02/10 15:01:58;;;;;;;36.35;15.23;;;;;;;;;;4989990;28;20633;-89
2024/02/10 15:05:03;;;;;;;11.45;3.40;;;;;;;;;;4990977;28;20189;-88
2024/02/10 15:08:11;;;;;;;72.80;34.15;;;;;;;;;;4991086;28;20230;-90
2024/02/10 15:11:16;;;;;;;14.27;5.57;;;;;;;;;;4987721;28;20190;-90
2024/02/10 15:14:23;;;;;;;9.65;3.17;;;;;;;;;;4968527;28;20218;-89
2024/02/10 15:17:28;;;;;;;5.95;2.65;;;;;;;;;;4983015;28;20194;-91
2024/02/10 15:20:33;;;;;;;6.68;3.17;;;;;;;;;;4992846;28;20202;-89
2024/02/10 15:23:39;;;;;;;9.55;3.58;;;;;;;;;;4991910;28;20198;-91
2024/02/10 15:26:45;;;;;;;9.57;6.05;;;;;;;;;;4986419;28;20201;-90
2024/02/10 15:29:57;;;;;;;7.95;3.80;;;;;;;;;;4988071;28;20225;-90
2024/02/10 15:56:33;;;;;;;10.98;3.22;;;;;;;;;;5061640;23;20333;-89
2024/02/10 15:59:47;;;;;;;7.85;3.25;;;;;;;;;;4992382;28;20234;-90
2024/02/10 16:02:54;;;;;;;6.93;3.40;;;;;;;;;;5022996;23;20249;-93
2024/02/10 16:05:59;;;;;;;9.05;3.70;;;;;;;;;;4989351;28;20724;-89
2024/02/10 16:09:08;;;;;;;18.20;5.47;;;;;;;;;;4988988;28;20225;-91
2024/02/10 16:12:16;;;;;;;18.10;4.40;;;;;;;;;;4989018;28;20205;-89
2024/02/10 16:15:22;;;;;;;8.38;2.65;;;;;;;;;;4987438;28;20248;-90
2024/02/10 16:18:28;;;;;;;9.43;3.15;;;;;;;;;;4987489;28;20193;-91
2024/02/10 16:21:33;;;;;;;10.35;4.57;;;;;;;;;;4988651;28;20189;-90
2024/02/10 16:24:43;;;;;;;22.48;3.40;;;;;;;;;;4991308;28;20197;-89
2024/02/10 16:27:53;;;;;;;7.50;2.88;;;;;;;;;;4990161;28;20218;-92
2024/02/10 16:30:59;;;;;;;42.50;18.30;;;;;;;;;;4990230;28;20278;-91
2024/02/10 16:34:05;;;;;;;7.28;3.97;;;;;;;;;;4988526;28;20185;-91
2024/02/10 16:37:16;;;;;;;7.80;2.90;;;;;;;;;;4986007;28;20190;-91
2024/02/10 16:40:27;;;;;;;9.32;2.30;;;;;;;;;;4987140;28;20346;-91
2024/02/10 16:43:34;;;;;;;8.60;3.08;;;;;;;;;;4987096;28;20198;-91
2024/02/10 16:46:44;;;;;;;4.72;2.40;;;;;;;;;;4988791;28;20242;-90
2024/02/10 16:49:55;;;;;;;25.23;13.60;;;;;;;;;;4990874;28;20222;-90
2024/02/10 16:53:04;;;;;;;12.98;5.20;;;;;;;;;;4989052;28;20217;-90
2024/02/10 16:56:10;;;;;;;25.38;9.90;;;;;;;;;;4971559;28;20335;-90
2024/02/10 16:59:18;;;;;;;19.55;8.23;;;;;;;;;;4978035;28;20265;-89
2024/02/10 17:02:24;;;;;;;36.03;18.20;;;;;;;;;;4988982;28;20206;-93
2024/02/10 17:05:30;;;;;;;22.73;8.65;;;;;;;;;;4986609;28;20477;-89
2024/02/10 17:08:38;;;;;;;14.07;6.60;;;;;;;;;;4986728;28;20230;-91
2024/02/10 17:11:44;;;;;;;18.83;7.95;;;;;;;;;;4966872;28;20269;-90
2024/02/10 17:14:51;;;;;;;16.63;8.35;;;;;;;;;;4967892;28;20268;-90
2024/02/10 17:17:57;;;;;;;18.45;8.27;;;;;;;;;;4971090;28;20194;-89
2024/02/10 17:21:03;;;;;;;22.70;7.70;;;;;;;;;;4970024;28;20179;-90
2024/02/10 17:24:09;;;;;;;13.82;6.00;;;;;;;;;;4967947;28;20282;-91
2024/02/10 17:27:14;;;;;;;10.65;5.20;;;;;;;;;;4968984;28;20310;-91
2024/02/10 17:30:21;;;;;;;27.73;12.25;;;;;;;;;;4968411;29;20201;-89
2024/02/10 17:33:26;;;;;;;12.68;6.10;;;;;;;;;;4969828;29;20214;-90
2024/02/10 17:36:32;;;;;;;15.75;4.75;;;;;;;;;;4971390;29;20202;-93
2024/02/10 17:39:38;;;;;;;28.33;13.13;;;;;;;;;;4971917;29;20203;-90
2024/02/10 17:42:44;;;;;;;15.35;7.50;;;;;;;;;;4969956;29;20190;-91
2024/02/10 17:45:52;;;;;;;17.33;8.38;;;;;;;;;;4971914;28;20226;-93
2024/02/10 17:48:59;;;;;;;15.85;7.80;;;;;;;;;;4973501;28;20262;-90
2024/02/10 17:52:06;;;;;;;16.33;7.75;;;;;;;;;;4973819;29;20340;-92
2024/02/10 17:55:12;;;;;;;19.63;8.93;;;;;;;;;;4972580;28;20198;-90
2024/02/10 18:04:18;;;;;;;24.73;9.48;;;;;;;;;;5205132;23;20242;-90
2024/02/10 18:07:27;;;;;;;22.92;9.25;;;;;;;;;;4992218;28;20189;-89
2024/02/10 18:10:32;;;;;;;38.65;15.82;;;;;;;;;;4991719;28;20657;-89
2024/02/10 18:13:39;;;;;;;35.45;14.90;;;;;;;;;;4991787;28;20241;-90
2024/02/10 18:16:44;;;;;;;27.85;10.70;;;;;;;;;;4993863;28;20206;-91
2024/02/10 18:19:52;;;;;;;26.75;12.27;;;;;;;;;;4989324;28;20278;-92
2024/02/10 18:22:58;;;;;;;26.98;11.35;;;;;;;;;;4992690;28;20213;-91
2024/02/10 18:26:05;;;;;;;79.05;32.17;;;;;;;;;;4989255;28;20310;-91
2024/02/10 18:29:11;;;;;;;26.58;11.07;;;;;;;;;;4982040;28;20224;-90
2024/02/10 18:32:16;;;;;;;22.73;9.73;;;;;;;;;;4973197;28;20193;-90
2024/02/10 18:35:24;;;;;;;29.90;10.40;;;;;;;;;;4972418;28;20685;-91
2024/02/10 18:38:29;;;;;;;27.02;10.73;;;;;;;;;;4989628;28;20189;-91
2024/02/10 18:41:34;;;;;;;17.17;7.82;;;;;;;;;;4989683;28;20205;-90
2024/02/10 18:44:43;;;;;;;25.40;8.10;;;;;;;;;;4988078;28;20218;-92
2024/02/10 18:47:49;;;;;;;22.02;7.40;;;;;;;;;;4990156;28;20190;-90
2024/02/10 18:50:59;;;;;;;19.92;8.30;;;;;;;;;;4990277;28;20194;-91
2024/02/10 18:54:05;;;;;;;15.60;8.15;;;;;;;;;;5003698;28;20286;-91
2024/02/10 18:57:12;;;;;;;17.30;7.75;;;;;;;;;;4992291;28;20748;-91
2024/02/10 19:00:19;;;;;;;19.10;8.93;;;;;;;;;;4991919;28;20185;-91
2024/02/10 19:03:24;;;;;;;21.92;9.25;;;;;;;;;;4994119;28;20812;-91
2024/02/10 19:06:32;;;;;;;16.88;7.47;;;;;;;;;;4988382;28;20201;-92
2024/02/10 19:09:37;;;;;;;21.25;7.88;;;;;;;;;;4990255;28;20190;-91
2024/02/10 19:12:48;;;;;;;19.83;8.00;;;;;;;;;;4988990;28;20210;-91
2024/02/10 19:15:54;;;;;;;19.45;7.95;;;;;;;;;;4988621;28;20197;-91
2024/02/10 19:19:00;;;;;;;18.83;7.65;;;;;;;;;;4989189;28;20190;-92